To NAV CANADA Home Page Login to a new session Search on AWWS site Feedback and Comments Disclaimer Vers la page française équivalente Tips FAQ What's new on the site To the Forecasts and Observations / NOTAM section To "File a Flight Plan" website Publications and other links Update of the User's profile FIC Telephone Numbers My Weather Data Folder Route Weather Data Regional Weather Data Local Weather Data To the Forecasts and Observations / NOTAM section
Request Generated 03/29/2015 at 07:18:31 UTC . Weather information available at that time is displayed.

METAR/TAF

FARO/YT    

LWIS CZFA 290700Z AUTO 15007KT M01/M09 A2953=
LWIS CZFA 290600Z AUTO 16007KT M02/M09 A2954=
LWIS CZFA 290500Z AUTO 15004KT M02/M10 A2955=

*** REMARK        : Forecast period has ended; this was the last TAF issued
*** REMARQUE : La période de prévision est échue; ceci était le dernier TAF qui a été émis
TAF AMD CZFA 281838Z 2818/2822 VRB03KT P6SM SCT012 SCT180 TEMPO
2818/2820 SCT004 BKN012
RMK NXT FCST WILL BE ISSUED AT 291545Z=
Your time UTC time
Weather data provided by Environment Canada and NAV CANADA